createdAt,value
2024-03-16T00:01:33.625Z,11.00
2024-03-16T00:04:00.677Z,11.00
2024-03-16T00:06:27.630Z,10.90
2024-03-16T00:08:54.529Z,10.80
2024-03-16T00:11:21.601Z,10.80
2024-03-16T00:13:48.618Z,10.80
2024-03-16T00:16:15.579Z,10.90
2024-03-16T00:18:42.530Z,11.00
2024-03-16T00:21:09.704Z,10.90
2024-03-16T00:23:36.572Z,10.90
2024-03-16T00:26:03.530Z,10.80
2024-03-16T00:28:30.456Z,10.80
2024-03-16T00:30:57.624Z,10.80
2024-03-16T00:33:24.789Z,10.70
2024-03-16T00:35:52.140Z,10.80
2024-03-16T00:38:19.225Z,10.80
2024-03-16T00:40:46.278Z,10.80
2024-03-16T00:43:19.113Z,10.80
2024-03-16T00:45:46.520Z,10.90
2024-03-16T00:48:13.564Z,10.90
2024-03-16T00:50:41.141Z,10.90
2024-03-16T00:53:10.571Z,11.00
2024-03-16T00:55:38.871Z,11.00
2024-03-16T00:58:06.136Z,11.00
2024-03-16T01:00:33.296Z,11.00
2024-03-16T01:03:00.474Z,11.10
2024-03-16T01:05:29.502Z,11.10
2024-03-16T01:07:57.424Z,11.00
2024-03-16T01:10:24.666Z,11.00
2024-03-16T01:12:51.769Z,11.00
2024-03-16T01:15:18.762Z,11.00
2024-03-16T01:17:46.159Z,11.00
2024-03-16T01:20:14.622Z,11.10
2024-03-16T01:22:41.629Z,11.10
2024-03-16T01:25:08.598Z,11.00
2024-03-16T01:27:35.738Z,11.10
2024-03-16T01:30:03.613Z,11.10
2024-03-16T01:32:30.779Z,11.20
2024-03-16T01:34:57.756Z,11.10
2024-03-16T01:37:24.769Z,11.10
2024-03-16T01:39:51.978Z,11.10
2024-03-16T01:42:19.117Z,11.10
2024-03-16T01:45:08.296Z,11.10
2024-03-16T01:47:35.442Z,11.10
2024-03-16T01:50:02.491Z,11.10
2024-03-16T01:52:29.837Z,11.10
2024-03-16T01:54:56.931Z,11.00
2024-03-16T01:57:24.126Z,11.10
2024-03-16T01:59:51.171Z,11.10
2024-03-16T02:02:34.356Z,11.10
2024-03-16T02:05:01.586Z,11.00
2024-03-16T02:07:28.506Z,11.00
2024-03-16T02:09:55.479Z,11.10
2024-03-16T02:12:22.450Z,11.00
2024-03-16T02:14:49.467Z,11.00
2024-03-16T02:17:16.500Z,11.00
2024-03-16T02:19:43.507Z,11.00
2024-03-16T02:22:10.996Z,11.00
2024-03-16T02:24:38.053Z,11.00
2024-03-16T02:27:05.207Z,11.00
2024-03-16T02:29:34.053Z,11.00
2024-03-16T02:32:01.045Z,11.00
2024-03-16T02:34:28.004Z,11.00
2024-03-16T02:36:55.008Z,11.00
2024-03-16T02:39:22.334Z,11.00
2024-03-16T02:41:49.293Z,11.00
2024-03-16T02:44:17.305Z,11.00
2024-03-16T02:46:44.239Z,11.00
2024-03-16T02:49:11.146Z,11.00
2024-03-16T02:51:38.372Z,10.90
2024-03-16T02:54:05.725Z,11.00
2024-03-16T02:56:32.595Z,11.00
2024-03-16T02:59:00.094Z,11.00
2024-03-16T03:05:27.390Z,10.90
2024-03-16T03:07:54.555Z,11.00
2024-03-16T03:10:22.957Z,11.00
2024-03-16T03:12:50.869Z,11.00
2024-03-16T03:15:17.939Z,11.00
2024-03-16T03:17:45.003Z,10.90
2024-03-16T03:20:12.828Z,10.90
2024-03-16T03:22:39.694Z,10.90
2024-03-16T03:25:07.045Z,10.90
2024-03-16T03:27:35.067Z,10.90
2024-03-16T03:30:02.148Z,10.80
2024-03-16T03:32:29.507Z,10.70
2024-03-16T03:34:56.642Z,10.70
2024-03-16T03:37:23.536Z,10.70
2024-03-16T03:39:53.814Z,10.70
2024-03-16T03:42:26.107Z,10.70
2024-03-16T03:45:11.915Z,10.70
2024-03-16T03:48:01.425Z,10.70
2024-03-16T03:50:29.901Z,10.80
2024-03-16T03:52:56.931Z,10.80
2024-03-16T03:55:23.886Z,10.80
2024-03-16T03:57:52.962Z,10.70
2024-03-16T04:00:20.884Z,10.60
2024-03-16T04:02:47.793Z,10.60
2024-03-16T04:05:14.765Z,10.60
2024-03-16T04:07:42.940Z,10.50
2024-03-16T04:10:09.947Z,10.50
2024-03-16T04:12:36.892Z,10.50
2024-03-16T04:15:04.971Z,10.40
2024-03-16T04:17:31.898Z,10.30
2024-03-16T04:19:59.009Z,10.40
2024-03-16T04:22:25.925Z,10.40
2024-03-16T04:24:52.920Z,10.40
2024-03-16T04:27:20.005Z,10.40
2024-03-16T04:29:47.015Z,10.40
2024-03-16T04:32:13.991Z,10.40
2024-03-16T04:34:40.938Z,10.30
2024-03-16T04:37:07.888Z,10.30
2024-03-16T04:39:34.876Z,10.30
2024-03-16T04:42:01.806Z,10.30
2024-03-16T04:44:28.765Z,10.30
2024-03-16T04:46:55.849Z,10.30
2024-03-16T04:49:22.903Z,10.40
2024-03-16T04:51:49.905Z,10.40
2024-03-16T04:54:17.121Z,10.40
2024-03-16T04:56:44.012Z,10.40
2024-03-16T04:59:12.458Z,10.40
2024-03-16T05:01:39.520Z,10.40
2024-03-16T05:04:06.815Z,10.40
2024-03-16T05:06:35.123Z,10.40
2024-03-16T05:09:11.944Z,10.40
2024-03-16T05:11:39.018Z,10.40
2024-03-16T05:14:09.308Z,10.50
2024-03-16T05:16:37.295Z,10.40
2024-03-16T05:19:05.570Z,10.40
2024-03-16T05:21:33.022Z,10.40
2024-03-16T05:24:02.922Z,10.40
2024-03-16T05:26:32.716Z,10.40
2024-03-16T05:28:59.609Z,10.40
2024-03-16T05:31:28.429Z,10.40
2024-03-16T05:33:55.478Z,10.40
2024-03-16T05:36:22.365Z,10.40
2024-03-16T05:38:49.255Z,10.40
2024-03-16T05:41:16.715Z,10.50
2024-03-16T05:43:47.223Z,10.40
2024-03-16T05:46:14.274Z,10.50
2024-03-16T05:48:41.890Z,10.50
2024-03-16T05:51:10.181Z,10.50
2024-03-16T05:53:37.066Z,10.50
2024-03-16T05:56:04.126Z,10.50
2024-03-16T05:58:32.885Z,10.50
2024-03-16T06:01:00.329Z,10.50
2024-03-16T06:03:28.125Z,10.60
2024-03-16T06:05:55.260Z,10.60
2024-03-16T06:08:22.172Z,10.60
2024-03-16T06:10:49.290Z,10.50
2024-03-16T06:13:16.419Z,10.40
2024-03-16T06:15:43.605Z,10.50
2024-03-16T06:18:10.831Z,10.40
2024-03-16T06:20:38.035Z,10.50
2024-03-16T06:23:07.792Z,10.50
2024-03-16T06:25:47.662Z,10.60
2024-03-16T06:28:18.283Z,10.60
2024-03-16T06:30:57.757Z,10.60
2024-03-16T06:33:34.401Z,10.60
2024-03-16T06:36:01.347Z,10.60
2024-03-16T06:38:30.172Z,10.50
2024-03-16T06:40:57.438Z,10.50
2024-03-16T06:43:24.278Z,10.40
2024-03-16T06:45:51.740Z,10.40
2024-03-16T06:48:19.181Z,10.40
2024-03-16T06:50:47.954Z,10.40
2024-03-16T06:53:14.895Z,10.50
2024-03-16T06:55:47.925Z,10.40
2024-03-16T06:58:14.985Z,10.30
2024-03-16T07:00:42.049Z,10.20
2024-03-16T07:03:09.042Z,10.20
2024-03-16T07:05:35.976Z,10.00
2024-03-16T07:08:02.982Z,10.00
2024-03-16T07:10:30.482Z,9.90
2024-03-16T07:12:57.595Z,9.90
2024-03-16T07:15:24.441Z,9.90
2024-03-16T07:17:51.368Z,9.90
2024-03-16T07:20:18.345Z,10.00
2024-03-16T07:22:45.271Z,10.00
2024-03-16T07:25:12.366Z,10.00
2024-03-16T07:27:39.414Z,10.10
2024-03-16T07:30:06.761Z,10.20
2024-03-16T07:32:34.374Z,10.30
2024-03-16T07:35:01.354Z,10.30
2024-03-16T07:37:28.275Z,10.60
2024-03-16T07:39:55.174Z,10.90
2024-03-16T07:42:22.063Z,11.10
2024-03-16T07:44:48.961Z,11.30
2024-03-16T07:47:16.558Z,11.30
2024-03-16T07:49:43.536Z,11.30
2024-03-16T07:52:13.045Z,11.60
2024-03-16T07:54:40.590Z,12.00
2024-03-16T07:57:09.904Z,11.80
2024-03-16T07:59:36.820Z,11.60
2024-03-16T08:02:03.752Z,11.20
2024-03-16T08:04:34.282Z,10.80
2024-03-16T08:07:01.372Z,10.50
2024-03-16T08:09:28.298Z,10.20
2024-03-16T08:11:55.556Z,10.00
2024-03-16T08:14:22.459Z,9.80
2024-03-16T08:16:49.427Z,9.90
2024-03-16T08:19:17.995Z,9.90
2024-03-16T08:21:45.917Z,10.00
2024-03-16T08:24:12.871Z,10.20
2024-03-16T08:26:39.750Z,10.40
2024-03-16T08:29:06.749Z,10.70
2024-03-16T08:31:34.353Z,10.90
2024-03-16T08:34:01.338Z,11.20
2024-03-16T08:36:28.838Z,11.70
2024-03-16T08:38:55.824Z,12.30
2024-03-16T08:41:22.783Z,12.70
2024-03-16T08:43:50.299Z,12.50
2024-03-16T08:46:17.182Z,12.00
2024-03-16T08:48:44.234Z,11.60
2024-03-16T08:51:11.161Z,11.50
2024-03-16T08:53:38.096Z,11.50
2024-03-16T08:56:08.156Z,11.70
2024-03-16T08:58:35.173Z,11.80
2024-03-16T09:01:02.653Z,11.60
2024-03-16T09:03:30.566Z,11.30
2024-03-16T09:05:57.698Z,10.80
2024-03-16T09:08:24.557Z,10.60
2024-03-16T09:10:51.516Z,10.30
2024-03-16T09:13:18.657Z,10.30
2024-03-16T09:15:45.662Z,10.40
2024-03-16T09:18:13.230Z,10.60
2024-03-16T09:20:44.866Z,11.00
2024-03-16T09:23:14.750Z,11.60
2024-03-16T09:25:42.463Z,12.20
2024-03-16T09:28:12.845Z,12.50
2024-03-16T09:30:40.682Z,13.20
2024-03-16T09:33:07.799Z,14.00
2024-03-16T09:35:34.652Z,14.20
2024-03-16T09:38:01.546Z,16.80
2024-03-16T09:40:28.504Z,17.80
